sensor_id;sensor_type;location;lat;lon;timestamp;P1;durP1;ratioP1;P2;durP2;ratioP2
17345;SDS011;8790;53.590;10.002;2023-07-31T00:01:35;5.73;;;2.00;;
17345;SDS011;8790;53.590;10.002;2023-07-31T00:04:07;4.10;;;1.80;;
17345;SDS011;8790;53.590;10.002;2023-07-31T00:06:38;4.57;;;2.00;;
17345;SDS011;8790;53.590;10.002;2023-07-31T00:09:09;5.10;;;2.10;;
17345;SDS011;8790;53.590;10.002;2023-07-31T00:11:41;5.50;;;1.90;;
17345;SDS011;8790;53.590;10.002;2023-07-31T00:14:14;5.97;;;2.27;;
17345;SDS011;8790;53.590;10.002;2023-07-31T00:16:45;5.47;;;2.00;;
17345;SDS011;8790;53.590;10.002;2023-07-31T00:19:17;2.87;;;1.93;;
17345;SDS011;8790;53.590;10.002;2023-07-31T00:21:48;4.50;;;1.90;;
17345;SDS011;8790;53.590;10.002;2023-07-31T00:24:20;5.53;;;2.03;;
17345;SDS011;8790;53.590;10.002;2023-07-31T00:26:51;6.93;;;2.77;;
17345;SDS011;8790;53.590;10.002;2023-07-31T00:29:25;5.90;;;2.20;;
17345;SDS011;8790;53.590;10.002;2023-07-31T00:31:56;5.63;;;2.23;;
17345;SDS011;8790;53.590;10.002;2023-07-31T00:34:27;5.27;;;2.67;;
17345;SDS011;8790;53.590;10.002;2023-07-31T00:37:00;7.13;;;2.37;;
17345;SDS011;8790;53.590;10.002;2023-07-31T00:39:33;4.83;;;1.87;;
17345;SDS011;8790;53.590;10.002;2023-07-31T00:42:05;3.60;;;1.80;;
17345;SDS011;8790;53.590;10.002;2023-07-31T00:44:38;5.00;;;1.93;;
17345;SDS011;8790;53.590;10.002;2023-07-31T00:47:10;3.77;;;1.80;;
17345;SDS011;8790;53.590;10.002;2023-07-31T00:49:41;5.90;;;1.77;;
17345;SDS011;8790;53.590;10.002;2023-07-31T00:52:13;3.87;;;1.60;;
17345;SDS011;8790;53.590;10.002;2023-07-31T00:54:44;4.30;;;1.70;;
17345;SDS011;8790;53.590;10.002;2023-07-31T00:57:15;6.73;;;1.87;;
17345;SDS011;8790;53.590;10.002;2023-07-31T00:59:49;5.07;;;1.63;;
17345;SDS011;8790;53.590;10.002;2023-07-31T01:02:21;3.73;;;1.60;;
17345;SDS011;8790;53.590;10.002;2023-07-31T01:04:52;5.13;;;1.80;;
17345;SDS011;8790;53.590;10.002;2023-07-31T01:07:26;4.37;;;2.07;;
17345;SDS011;8790;53.590;10.002;2023-07-31T01:10:02;6.20;;;1.90;;
17345;SDS011;8790;53.590;10.002;2023-07-31T01:12:37;2.97;;;1.73;;
17345;SDS011;8790;53.590;10.002;2023-07-31T01:15:10;3.60;;;1.70;;
17345;SDS011;8790;53.590;10.002;2023-07-31T01:17:43;4.13;;;1.93;;
17345;SDS011;8790;53.590;10.002;2023-07-31T01:20:15;7.37;;;2.23;;
17345;SDS011;8790;53.590;10.002;2023-07-31T01:22:54;5.93;;;2.10;;
17345;SDS011;8790;53.590;10.002;2023-07-31T01:26:02;4.03;;;1.93;;
17345;SDS011;8790;53.590;10.002;2023-07-31T01:28:38;4.40;;;2.00;;
17345;SDS011;8790;53.590;10.002;2023-07-31T01:31:16;5.77;;;2.20;;
17345;SDS011;8790;53.590;10.002;2023-07-31T01:33:48;5.47;;;2.23;;
17345;SDS011;8790;53.590;10.002;2023-07-31T01:36:20;4.93;;;2.30;;
17345;SDS011;8790;53.590;10.002;2023-07-31T01:38:51;4.13;;;2.30;;
17345;SDS011;8790;53.590;10.002;2023-07-31T01:41:24;6.73;;;2.10;;
17345;SDS011;8790;53.590;10.002;2023-07-31T01:43:56;4.67;;;2.13;;
17345;SDS011;8790;53.590;10.002;2023-07-31T01:46:27;6.53;;;2.50;;
17345;SDS011;8790;53.590;10.002;2023-07-31T01:49:00;4.07;;;2.37;;
17345;SDS011;8790;53.590;10.002;2023-07-31T01:51:31;3.50;;;2.10;;
17345;SDS011;8790;53.590;10.002;2023-07-31T01:54:04;4.47;;;2.27;;
17345;SDS011;8790;53.590;10.002;2023-07-31T01:56:37;6.67;;;2.50;;
17345;SDS011;8790;53.590;10.002;2023-07-31T01:59:08;4.43;;;2.27;;
17345;SDS011;8790;53.590;10.002;2023-07-31T02:01:40;4.53;;;2.13;;
17345;SDS011;8790;53.590;10.002;2023-07-31T02:04:11;5.50;;;2.23;;
17345;SDS011;8790;53.590;10.002;2023-07-31T02:06:43;3.40;;;2.17;;
17345;SDS011;8790;53.590;10.002;2023-07-31T02:09:15;3.67;;;2.40;;
17345;SDS011;8790;53.590;10.002;2023-07-31T02:11:48;5.43;;;2.53;;
17345;SDS011;8790;53.590;10.002;2023-07-31T02:14:19;4.30;;;2.40;;
17345;SDS011;8790;53.590;10.002;2023-07-31T02:16:51;4.10;;;2.17;;
17345;SDS011;8790;53.590;10.002;2023-07-31T02:19:22;7.30;;;2.60;;
17345;SDS011;8790;53.590;10.002;2023-07-31T02:21:54;4.30;;;2.40;;
17345;SDS011;8790;53.590;10.002;2023-07-31T02:24:26;4.17;;;2.27;;
17345;SDS011;8790;53.590;10.002;2023-07-31T02:26:59;3.70;;;2.10;;
17345;SDS011;8790;53.590;10.002;2023-07-31T02:29:31;4.33;;;2.43;;
17345;SDS011;8790;53.590;10.002;2023-07-31T02:32:03;4.47;;;2.10;;
17345;SDS011;8790;53.590;10.002;2023-07-31T02:34:35;6.20;;;2.40;;
17345;SDS011;8790;53.590;10.002;2023-07-31T02:37:06;3.60;;;2.20;;
17345;SDS011;8790;53.590;10.002;2023-07-31T02:39:38;6.00;;;2.40;;
17345;SDS011;8790;53.590;10.002;2023-07-31T02:42:11;3.63;;;2.13;;
17345;SDS011;8790;53.590;10.002;2023-07-31T02:44:42;4.97;;;2.30;;
17345;SDS011;8790;53.590;10.002;2023-07-31T02:47:13;4.60;;;2.13;;
17345;SDS011;8790;53.590;10.002;2023-07-31T02:49:45;4.07;;;2.30;;
17345;SDS011;8790;53.590;10.002;2023-07-31T02:52:16;3.33;;;2.47;;
17345;SDS011;8790;53.590;10.002;2023-07-31T02:54:48;6.00;;;2.30;;
17345;SDS011;8790;53.590;10.002;2023-07-31T02:57:21;4.20;;;2.13;;
17345;SDS011;8790;53.590;10.002;2023-07-31T02:59:52;6.03;;;2.47;;
17345;SDS011;8790;53.590;10.002;2023-07-31T03:02:23;3.27;;;2.17;;
17345;SDS011;8790;53.590;10.002;2023-07-31T03:04:55;4.53;;;2.23;;
17345;SDS011;8790;53.590;10.002;2023-07-31T03:07:26;5.37;;;2.40;;
17345;SDS011;8790;53.590;10.002;2023-07-31T03:09:58;3.50;;;2.20;;
17345;SDS011;8790;53.590;10.002;2023-07-31T03:12:31;4.70;;;2.30;;
17345;SDS011;8790;53.590;10.002;2023-07-31T03:15:03;6.30;;;2.50;;
17345;SDS011;8790;53.590;10.002;2023-07-31T03:17:35;2.93;;;2.43;;
17345;SDS011;8790;53.590;10.002;2023-07-31T03:20:07;4.77;;;2.33;;
17345;SDS011;8790;53.590;10.002;2023-07-31T03:22:40;6.53;;;2.50;;
17345;SDS011;8790;53.590;10.002;2023-07-31T03:25:11;4.57;;;2.30;;
17345;SDS011;8790;53.590;10.002;2023-07-31T03:27:45;3.50;;;2.40;;
17345;SDS011;8790;53.590;10.002;2023-07-31T03:30:17;3.87;;;2.63;;
17345;SDS011;8790;53.590;10.002;2023-07-31T03:32:48;5.17;;;2.67;;
17345;SDS011;8790;53.590;10.002;2023-07-31T03:35:20;6.50;;;3.70;;
17345;SDS011;8790;53.590;10.002;2023-07-31T03:37:52;3.60;;;2.33;;
17345;SDS011;8790;53.590;10.002;2023-07-31T03:40:23;4.00;;;2.30;;
17345;SDS011;8790;53.590;10.002;2023-07-31T03:42:56;3.83;;;2.10;;
17345;SDS011;8790;53.590;10.002;2023-07-31T03:45:27;2.40;;;2.20;;
17345;SDS011;8790;53.590;10.002;2023-07-31T03:47:59;3.60;;;2.40;;
17345;SDS011;8790;53.590;10.002;2023-07-31T03:50:30;3.40;;;2.10;;
17345;SDS011;8790;53.590;10.002;2023-07-31T03:53:02;3.83;;;2.37;;
17345;SDS011;8790;53.590;10.002;2023-07-31T03:55:33;3.07;;;2.37;;
17345;SDS011;8790;53.590;10.002;2023-07-31T03:58:06;2.73;;;2.10;;
17345;SDS011;8790;53.590;10.002;2023-07-31T04:00:39;3.00;;;2.23;;
17345;SDS011;8790;53.590;10.002;2023-07-31T04:03:11;4.23;;;2.20;;
17345;SDS011;8790;53.590;10.002;2023-07-31T04:05:42;3.30;;;2.43;;
17345;SDS011;8790;53.590;10.002;2023-07-31T04:08:13;4.10;;;2.37;;
17345;SDS011;8790;53.590;10.002;2023-07-31T04:10:45;3.17;;;2.40;;
17345;SDS011;8790;53.590;10.002;2023-07-31T04:13:18;3.33;;;2.30;;
17345;SDS011;8790;53.590;10.002;2023-07-31T04:15:50;3.47;;;2.50;;
17345;SDS011;8790;53.590;10.002;2023-07-31T04:18:22;3.87;;;2.40;;
17345;SDS011;8790;53.590;10.002;2023-07-31T04:20:55;3.70;;;2.43;;
17345;SDS011;8790;53.590;10.002;2023-07-31T04:23:28;3.00;;;2.30;;
17345;SDS011;8790;53.590;10.002;2023-07-31T04:26:00;3.30;;;2.23;;
17345;SDS011;8790;53.590;10.002;2023-07-31T04:28:35;3.80;;;2.20;;
17345;SDS011;8790;53.590;10.002;2023-07-31T04:31:06;3.73;;;2.23;;
17345;SDS011;8790;53.590;10.002;2023-07-31T04:33:38;2.43;;;2.23;;
17345;SDS011;8790;53.590;10.002;2023-07-31T04:36:10;3.23;;;2.80;;
17345;SDS011;8790;53.590;10.002;2023-07-31T04:38:41;2.63;;;2.30;;
17345;SDS011;8790;53.590;10.002;2023-07-31T04:41:13;2.40;;;2.20;;
17345;SDS011;8790;53.590;10.002;2023-07-31T04:43:45;3.87;;;2.40;;
17345;SDS011;8790;53.590;10.002;2023-07-31T04:46:17;4.97;;;2.40;;
17345;SDS011;8790;53.590;10.002;2023-07-31T04:48:48;4.90;;;2.10;;
17345;SDS011;8790;53.590;10.002;2023-07-31T04:51:20;3.20;;;2.20;;
17345;SDS011;8790;53.590;10.002;2023-07-31T04:53:53;3.00;;;2.10;;
17345;SDS011;8790;53.590;10.002;2023-07-31T04:56:24;2.27;;;2.07;;
17345;SDS011;8790;53.590;10.002;2023-07-31T04:58:57;2.43;;;1.90;;
17345;SDS011;8790;53.590;10.002;2023-07-31T05:01:29;3.17;;;2.20;;
17345;SDS011;8790;53.590;10.002;2023-07-31T05:04:00;3.27;;;2.10;;
17345;SDS011;8790;53.590;10.002;2023-07-31T05:06:32;2.97;;;2.13;;
17345;SDS011;8790;53.590;10.002;2023-07-31T05:09:03;2.47;;;2.20;;
17345;SDS011;8790;53.590;10.002;2023-07-31T05:11:35;2.23;;;2.03;;
17345;SDS011;8790;53.590;10.002;2023-07-31T05:14:08;2.27;;;2.03;;
17345;SDS011;8790;53.590;10.002;2023-07-31T05:16:39;3.20;;;2.20;;
17345;SDS011;8790;53.590;10.002;2023-07-31T05:19:10;3.10;;;1.93;;
17345;SDS011;8790;53.590;10.002;2023-07-31T05:21:42;2.30;;;2.10;;
17345;SDS011;8790;53.590;10.002;2023-07-31T05:24:13;2.33;;;2.13;;
17345;SDS011;8790;53.590;10.002;2023-07-31T05:26:45;3.27;;;1.83;;
17345;SDS011;8790;53.590;10.002;2023-07-31T05:29:17;2.57;;;2.07;;
17345;SDS011;8790;53.590;10.002;2023-07-31T05:31:49;2.20;;;1.83;;
17345;SDS011;8790;53.590;10.002;2023-07-31T05:34:20;2.67;;;1.80;;
17345;SDS011;8790;53.590;10.002;2023-07-31T05:36:52;2.30;;;1.80;;
17345;SDS011;8790;53.590;10.002;2023-07-31T05:39:23;2.03;;;1.60;;
17345;SDS011;8790;53.590;10.002;2023-07-31T05:41:54;2.30;;;1.83;;
17345;SDS011;8790;53.590;10.002;2023-07-31T05:44:27;2.93;;;2.00;;
17345;SDS011;8790;53.590;10.002;2023-07-31T05:46:59;2.20;;;1.90;;
17345;SDS011;8790;53.590;10.002;2023-07-31T05:49:30;2.03;;;1.83;;
17345;SDS011;8790;53.590;10.002;2023-07-31T05:52:02;2.10;;;1.90;;
17345;SDS011;8790;53.590;10.002;2023-07-31T05:54:34;2.70;;;1.80;;
17345;SDS011;8790;53.590;10.002;2023-07-31T05:57:05;3.43;;;2.07;;
17345;SDS011;8790;53.590;10.002;2023-07-31T05:59:38;2.50;;;2.30;;
17345;SDS011;8790;53.590;10.002;2023-07-31T06:02:10;2.30;;;1.90;;
17345;SDS011;8790;53.590;10.002;2023-07-31T06:04:41;2.50;;;1.93;;
17345;SDS011;8790;53.590;10.002;2023-07-31T06:07:13;2.77;;;2.20;;
17345;SDS011;8790;53.590;10.002;2023-07-31T06:09:44;2.60;;;2.30;;
17345;SDS011;8790;53.590;10.002;2023-07-31T06:12:15;2.57;;;2.30;;
17345;SDS011;8790;53.590;10.002;2023-07-31T06:14:50;2.17;;;1.97;;
17345;SDS011;8790;53.590;10.002;2023-07-31T06:17:22;3.03;;;2.47;;
17345;SDS011;8790;53.590;10.002;2023-07-31T06:19:53;2.50;;;2.30;;
17345;SDS011;8790;53.590;10.002;2023-07-31T06:22:25;2.60;;;2.40;;
17345;SDS011;8790;53.590;10.002;2023-07-31T06:24:56;3.50;;;2.63;;
17345;SDS011;8790;53.590;10.002;2023-07-31T06:27:28;2.73;;;2.53;;
17345;SDS011;8790;53.590;10.002;2023-07-31T06:30:01;3.50;;;2.37;;
17345;SDS011;8790;53.590;10.002;2023-07-31T06:32:32;3.10;;;2.80;;
17345;SDS011;8790;53.590;10.002;2023-07-31T06:35:04;2.77;;;2.50;;
17345;SDS011;8790;53.590;10.002;2023-07-31T06:37:36;3.70;;;2.70;;
17345;SDS011;8790;53.590;10.002;2023-07-31T06:40:10;3.80;;;2.70;;
17345;SDS011;8790;53.590;10.002;2023-07-31T06:42:42;2.83;;;2.60;;
17345;SDS011;8790;53.590;10.002;2023-07-31T06:45:15;2.97;;;2.53;;
17345;SDS011;8790;53.590;10.002;2023-07-31T06:47:47;2.87;;;2.50;;
17345;SDS011;8790;53.590;10.002;2023-07-31T06:50:18;3.27;;;2.60;;
17345;SDS011;8790;53.590;10.002;2023-07-31T06:52:49;2.63;;;2.33;;
17345;SDS011;8790;53.590;10.002;2023-07-31T06:55:21;3.87;;;2.60;;
17345;SDS011;8790;53.590;10.002;2023-07-31T06:57:53;2.77;;;2.30;;
17345;SDS011;8790;53.590;10.002;2023-07-31T07:00:27;2.40;;;2.20;;
17345;SDS011;8790;53.590;10.002;2023-07-31T07:02:58;3.10;;;2.40;;
17345;SDS011;8790;53.590;10.002;2023-07-31T07:05:30;2.80;;;2.60;;
17345;SDS011;8790;53.590;10.002;2023-07-31T07:08:01;2.70;;;2.50;;
17345;SDS011;8790;53.590;10.002;2023-07-31T07:10:33;3.30;;;2.27;;
17345;SDS011;8790;53.590;10.002;2023-07-31T07:13:04;2.70;;;2.50;;
17345;SDS011;8790;53.590;10.002;2023-07-31T07:15:37;2.60;;;2.40;;
17345;SDS011;8790;53.590;10.002;2023-07-31T07:18:08;2.73;;;2.07;;
17345;SDS011;8790;53.590;10.002;2023-07-31T07:20:40;2.73;;;2.50;;
17345;SDS011;8790;53.590;10.002;2023-07-31T07:23:17;2.47;;;2.00;;
17345;SDS011;8790;53.590;10.002;2023-07-31T07:25:48;2.40;;;2.20;;
17345;SDS011;8790;53.590;10.002;2023-07-31T07:28:20;4.07;;;3.10;;
17345;SDS011;8790;53.590;10.002;2023-07-31T07:30:53;2.70;;;2.40;;
17345;SDS011;8790;53.590;10.002;2023-07-31T07:33:24;4.07;;;3.37;;
17345;SDS011;8790;53.590;10.002;2023-07-31T07:35:59;2.57;;;2.00;;
17345;SDS011;8790;53.590;10.002;2023-07-31T07:38:31;2.10;;;1.90;;
17345;SDS011;8790;53.590;10.002;2023-07-31T07:41:02;5.57;;;5.07;;
17345;SDS011;8790;53.590;10.002;2023-07-31T07:43:34;2.03;;;1.83;;
17345;SDS011;8790;53.590;10.002;2023-07-31T07:46:07;2.13;;;1.93;;
17345;SDS011;8790;53.590;10.002;2023-07-31T07:48:38;2.20;;;1.80;;
17345;SDS011;8790;53.590;10.002;2023-07-31T07:51:10;2.37;;;2.00;;
17345;SDS011;8790;53.590;10.002;2023-07-31T07:53:42;2.00;;;1.80;;
17345;SDS011;8790;53.590;10.002;2023-07-31T07:56:13;2.37;;;1.97;;
17345;SDS011;8790;53.590;10.002;2023-07-31T07:58:44;2.83;;;2.10;;
17345;SDS011;8790;53.590;10.002;2023-07-31T08:01:21;2.20;;;2.00;;
17345;SDS011;8790;53.590;10.002;2023-07-31T08:03:52;2.50;;;2.30;;
17345;SDS011;8790;53.590;10.002;2023-07-31T08:06:23;2.57;;;2.37;;
17345;SDS011;8790;53.590;10.002;2023-07-31T08:08:55;2.43;;;2.20;;
17345;SDS011;8790;53.590;10.002;2023-07-31T08:11:27;2.57;;;2.37;;
17345;SDS011;8790;53.590;10.002;2023-07-31T08:13:58;2.50;;;2.30;;
17345;SDS011;8790;53.590;10.002;2023-07-31T08:16:31;2.90;;;2.70;;
17345;SDS011;8790;53.590;10.002;2023-07-31T08:19:02;2.60;;;2.23;;
17345;SDS011;8790;53.590;10.002;2023-07-31T08:21:34;2.37;;;2.17;;
17345;SDS011;8790;53.590;10.002;2023-07-31T08:24:05;2.40;;;2.20;;
17345;SDS011;8790;53.590;10.002;2023-07-31T08:26:38;2.20;;;2.00;;
17345;SDS011;8790;53.590;10.002;2023-07-31T08:29:09;2.50;;;2.30;;
17345;SDS011;8790;53.590;10.002;2023-07-31T08:31:42;2.60;;;2.23;;
17345;SDS011;8790;53.590;10.002;2023-07-31T08:34:13;2.90;;;2.70;;
17345;SDS011;8790;53.590;10.002;2023-07-31T08:36:45;2.40;;;2.17;;
17345;SDS011;8790;53.590;10.002;2023-07-31T08:39:16;2.43;;;2.10;;
17345;SDS011;8790;53.590;10.002;2023-07-31T08:41:47;2.50;;;2.30;;
17345;SDS011;8790;53.590;10.002;2023-07-31T08:44:19;4.27;;;1.83;;
17345;SDS011;8790;53.590;10.002;2023-07-31T08:46:53;2.20;;;2.00;;
17345;SDS011;8790;53.590;10.002;2023-07-31T08:49:24;1.90;;;1.80;;
17345;SDS011;8790;53.590;10.002;2023-07-31T08:51:57;2.10;;;1.90;;
17345;SDS011;8790;53.590;10.002;2023-07-31T08:54:29;1.83;;;1.60;;
17345;SDS011;8790;53.590;10.002;2023-07-31T08:57:01;2.23;;;2.00;;
17345;SDS011;8790;53.590;10.002;2023-07-31T08:59:32;2.30;;;1.80;;
17345;SDS011;8790;53.590;10.002;2023-07-31T09:02:07;1.90;;;1.70;;
17345;SDS011;8790;53.590;10.002;2023-07-31T09:04:39;1.53;;;1.43;;
17345;SDS011;8790;53.590;10.002;2023-07-31T09:07:11;1.80;;;1.70;;
17345;SDS011;8790;53.590;10.002;2023-07-31T09:09:43;2.07;;;1.60;;
17345;SDS011;8790;53.590;10.002;2023-07-31T09:12:17;1.67;;;1.40;;
17345;SDS011;8790;53.590;10.002;2023-07-31T09:14:48;1.23;;;1.13;;
17345;SDS011;8790;53.590;10.002;2023-07-31T09:17:29;1.40;;;1.30;;
17345;SDS011;8790;53.590;10.002;2023-07-31T09:20:12;1.30;;;1.20;;
17345;SDS011;8790;53.590;10.002;2023-07-31T09:22:45;1.63;;;1.10;;
17345;SDS011;8790;53.590;10.002;2023-07-31T09:25:18;1.60;;;1.33;;
17345;SDS011;8790;53.590;10.002;2023-07-31T09:27:51;1.33;;;1.23;;
17345;SDS011;8790;53.590;10.002;2023-07-31T09:30:24;2.40;;;1.20;;
17345;SDS011;8790;53.590;10.002;2023-07-31T09:33:01;1.70;;;1.17;;
17345;SDS011;8790;53.590;10.002;2023-07-31T09:35:34;0.93;;;0.80;;
17345;SDS011;8790;53.590;10.002;2023-07-31T09:38:08;1.47;;;1.17;;
17345;SDS011;8790;53.590;10.002;2023-07-31T09:40:41;1.40;;;1.20;;
17345;SDS011;8790;53.590;10.002;2023-07-31T09:43:16;1.60;;;1.10;;
17345;SDS011;8790;53.590;10.002;2023-07-31T09:45:52;1.40;;;0.90;;
17345;SDS011;8790;53.590;10.002;2023-07-31T09:48:27;1.03;;;0.93;;
17345;SDS011;8790;53.590;10.002;2023-07-31T09:51:00;2.10;;;1.90;;
17345;SDS011;8790;53.590;10.002;2023-07-31T09:53:35;2.57;;;2.10;;
17345;SDS011;8790;53.590;10.002;2023-07-31T09:56:07;1.63;;;1.10;;
17345;SDS011;8790;53.590;10.002;2023-07-31T09:58:38;1.43;;;1.20;;
17345;SDS011;8790;53.590;10.002;2023-07-31T10:01:10;1.30;;;1.00;;
17345;SDS011;8790;53.590;10.002;2023-07-31T10:03:43;1.80;;;1.20;;
17345;SDS011;8790;53.590;10.002;2023-07-31T10:06:16;1.13;;;1.03;;
17345;SDS011;8790;53.590;10.002;2023-07-31T10:08:49;1.43;;;1.00;;
17345;SDS011;8790;53.590;10.002;2023-07-31T10:11:22;1.20;;;1.10;;
17345;SDS011;8790;53.590;10.002;2023-07-31T10:13:56;1.30;;;1.20;;
17345;SDS011;8790;53.590;10.002;2023-07-31T10:16:27;1.30;;;1.20;;
17345;SDS011;8790;53.590;10.002;2023-07-31T10:19:01;2.23;;;1.63;;
17345;SDS011;8790;53.590;10.002;2023-07-31T10:21:32;1.97;;;1.47;;
17345;SDS011;8790;53.590;10.002;2023-07-31T10:24:05;1.60;;;1.20;;
17345;SDS011;8790;53.590;10.002;2023-07-31T10:26:37;1.13;;;1.00;;
17345;SDS011;8790;53.590;10.002;2023-07-31T10:29:10;1.27;;;0.90;;
17345;SDS011;8790;53.590;10.002;2023-07-31T10:31:41;1.00;;;0.90;;
17345;SDS011;8790;53.590;10.002;2023-07-31T10:34:15;1.10;;;0.90;;
17345;SDS011;8790;53.590;10.002;2023-07-31T10:36:46;1.17;;;0.90;;
17345;SDS011;8790;53.590;10.002;2023-07-31T10:39:35;1.60;;;1.20;;
17345;SDS011;8790;53.590;10.002;2023-07-31T10:42:11;2.00;;;1.07;;
17345;SDS011;8790;53.590;10.002;2023-07-31T10:44:43;1.43;;;1.00;;
17345;SDS011;8790;53.590;10.002;2023-07-31T10:47:15;1.40;;;0.87;;
17345;SDS011;8790;53.590;10.002;2023-07-31T10:49:48;1.43;;;0.97;;
17345;SDS011;8790;53.590;10.002;2023-07-31T10:52:20;1.23;;;0.60;;
17345;SDS011;8790;53.590;10.002;2023-07-31T10:57:47;1.00;;;0.70;;
17345;SDS011;8790;53.590;10.002;2023-07-31T11:00:19;1.43;;;0.80;;
17345;SDS011;8790;53.590;10.002;2023-07-31T11:02:58;1.23;;;1.13;;
17345;SDS011;8790;53.590;10.002;2023-07-31T11:05:45;2.20;;;1.00;;
17345;SDS011;8790;53.590;10.002;2023-07-31T11:08:18;1.40;;;0.90;;
17345;SDS011;8790;53.590;10.002;2023-07-31T11:10:51;0.60;;;0.60;;
17345;SDS011;8790;53.590;10.002;2023-07-31T11:13:40;1.20;;;0.70;;
17345;SDS011;8790;53.590;10.002;2023-07-31T11:16:13;0.90;;;0.80;;
17345;SDS011;8790;53.590;10.002;2023-07-31T11:18:45;1.37;;;0.83;;
17345;SDS011;8790;53.590;10.002;2023-07-31T11:21:20;1.53;;;0.93;;
17345;SDS011;8790;53.590;10.002;2023-07-31T11:23:53;1.67;;;1.00;;
17345;SDS011;8790;53.590;10.002;2023-07-31T11:26:27;3.20;;;0.80;;
17345;SDS011;8790;53.590;10.002;2023-07-31T11:28:58;0.97;;;0.80;;
17345;SDS011;8790;53.590;10.002;2023-07-31T11:31:30;1.30;;;0.80;;
17345;SDS011;8790;53.590;10.002;2023-07-31T11:34:04;4.17;;;3.10;;
17345;SDS011;8790;53.590;10.002;2023-07-31T11:36:37;1.73;;;1.40;;
17345;SDS011;8790;53.590;10.002;2023-07-31T11:39:09;11.83;;;8.33;;
17345;SDS011;8790;53.590;10.002;2023-07-31T11:41:41;2.10;;;1.00;;
17345;SDS011;8790;53.590;10.002;2023-07-31T11:44:13;0.70;;;0.70;;
17345;SDS011;8790;53.590;10.002;2023-07-31T11:46:44;1.67;;;0.70;;
17345;SDS011;8790;53.590;10.002;2023-07-31T11:49:15;1.60;;;0.90;;
17345;SDS011;8790;53.590;10.002;2023-07-31T11:51:48;2.37;;;0.80;;
17345;SDS011;8790;53.590;10.002;2023-07-31T11:54:20;1.73;;;0.70;;
17345;SDS011;8790;53.590;10.002;2023-07-31T11:56:51;1.63;;;1.00;;
17345;SDS011;8790;53.590;10.002;2023-07-31T11:59:23;1.57;;;0.90;;
17345;SDS011;8790;53.590;10.002;2023-07-31T12:01:54;1.27;;;0.90;;
17345;SDS011;8790;53.590;10.002;2023-07-31T12:04:26;0.83;;;0.70;;
17345;SDS011;8790;53.590;10.002;2023-07-31T12:07:01;1.17;;;0.80;;
17345;SDS011;8790;53.590;10.002;2023-07-31T12:09:32;2.30;;;1.43;;
17345;SDS011;8790;53.590;10.002;2023-07-31T12:12:06;0.97;;;0.60;;
17345;SDS011;8790;53.590;10.002;2023-07-31T12:14:41;0.60;;;0.60;;
17345;SDS011;8790;53.590;10.002;2023-07-31T12:17:13;1.10;;;0.70;;
17345;SDS011;8790;53.590;10.002;2023-07-31T12:19:45;1.27;;;0.60;;
17345;SDS011;8790;53.590;10.002;2023-07-31T12:22:19;1.30;;;0.93;;
17345;SDS011;8790;53.590;10.002;2023-07-31T12:24:51;1.10;;;0.80;;
17345;SDS011;8790;53.590;10.002;2023-07-31T12:27:32;1.23;;;0.90;;
17345;SDS011;8790;53.590;10.002;2023-07-31T12:30:04;1.83;;;0.80;;
17345;SDS011;8790;53.590;10.002;2023-07-31T12:32:36;1.40;;;0.97;;
17345;SDS011;8790;53.590;10.002;2023-07-31T12:35:08;1.40;;;1.30;;
17345;SDS011;8790;53.590;10.002;2023-07-31T12:37:41;1.33;;;1.00;;
17345;SDS011;8790;53.590;10.002;2023-07-31T12:40:12;0.70;;;0.63;;
17345;SDS011;8790;53.590;10.002;2023-07-31T12:42:43;0.90;;;0.70;;
17345;SDS011;8790;53.590;10.002;2023-07-31T12:45:15;1.30;;;0.70;;
17345;SDS011;8790;53.590;10.002;2023-07-31T12:47:46;1.23;;;0.80;;
17345;SDS011;8790;53.590;10.002;2023-07-31T12:50:18;2.00;;;0.90;;
17345;SDS011;8790;53.590;10.002;2023-07-31T12:52:51;1.30;;;0.90;;
17345;SDS011;8790;53.590;10.002;2023-07-31T12:55:22;1.60;;;1.23;;
17345;SDS011;8790;53.590;10.002;2023-07-31T12:57:54;0.80;;;0.73;;
17345;SDS011;8790;53.590;10.002;2023-07-31T13:00:26;2.23;;;1.87;;
17345;SDS011;8790;53.590;10.002;2023-07-31T13:02:57;1.37;;;0.90;;
17345;SDS011;8790;53.590;10.002;2023-07-31T13:05:29;1.90;;;0.77;;
17345;SDS011;8790;53.590;10.002;2023-07-31T13:08:02;5.00;;;1.53;;
17345;SDS011;8790;53.590;10.002;2023-07-31T13:10:33;0.70;;;0.60;;
17345;SDS011;8790;53.590;10.002;2023-07-31T13:13:05;0.70;;;0.70;;
17345;SDS011;8790;53.590;10.002;2023-07-31T13:15:36;1.20;;;0.70;;
17345;SDS011;8790;53.590;10.002;2023-07-31T13:18:07;1.83;;;0.80;;
17345;SDS011;8790;53.590;10.002;2023-07-31T13:20:39;1.30;;;0.70;;
17345;SDS011;8790;53.590;10.002;2023-07-31T13:23:12;1.83;;;0.60;;
17345;SDS011;8790;53.590;10.002;2023-07-31T13:25:43;2.10;;;0.50;;
17345;SDS011;8790;53.590;10.002;2023-07-31T13:28:14;2.10;;;0.90;;
17345;SDS011;8790;53.590;10.002;2023-07-31T13:30:46;1.27;;;0.77;;
17345;SDS011;8790;53.590;10.002;2023-07-31T13:33:17;0.53;;;0.50;;
17345;SDS011;8790;53.590;10.002;2023-07-31T13:35:49;1.93;;;0.80;;
17345;SDS011;8790;53.590;10.002;2023-07-31T13:38:21;1.40;;;0.80;;
17345;SDS011;8790;53.590;10.002;2023-07-31T13:40:53;1.10;;;0.90;;
17345;SDS011;8790;53.590;10.002;2023-07-31T13:43:24;1.10;;;0.80;;
17345;SDS011;8790;53.590;10.002;2023-07-31T13:45:56;1.57;;;1.07;;
17345;SDS011;8790;53.590;10.002;2023-07-31T13:48:27;0.83;;;0.70;;
17345;SDS011;8790;53.590;10.002;2023-07-31T13:50:58;1.93;;;1.20;;
17345;SDS011;8790;53.590;10.002;2023-07-31T13:53:31;1.40;;;1.10;;
17345;SDS011;8790;53.590;10.002;2023-07-31T13:56:03;1.57;;;1.00;;
17345;SDS011;8790;53.590;10.002;2023-07-31T13:58:35;1.63;;;1.10;;
17345;SDS011;8790;53.590;10.002;2023-07-31T14:01:06;1.70;;;1.40;;
17345;SDS011;8790;53.590;10.002;2023-07-31T14:03:37;0.90;;;0.90;;
17345;SDS011;8790;53.590;10.002;2023-07-31T14:06:09;1.10;;;1.00;;
17345;SDS011;8790;53.590;10.002;2023-07-31T14:08:42;1.93;;;0.90;;
17345;SDS011;8790;53.590;10.002;2023-07-31T14:11:13;2.43;;;1.70;;
17345;SDS011;8790;53.590;10.002;2023-07-31T14:13:45;2.07;;;1.87;;
17345;SDS011;8790;53.590;10.002;2023-07-31T14:16:16;2.40;;;1.60;;
17345;SDS011;8790;53.590;10.002;2023-07-31T14:18:48;1.20;;;1.10;;
17345;SDS011;8790;53.590;10.002;2023-07-31T14:21:19;1.07;;;0.70;;
17345;SDS011;8790;53.590;10.002;2023-07-31T14:23:52;1.30;;;0.80;;
17345;SDS011;8790;53.590;10.002;2023-07-31T14:26:23;0.90;;;0.80;;
17345;SDS011;8790;53.590;10.002;2023-07-31T14:28:55;2.23;;;1.20;;
17345;SDS011;8790;53.590;10.002;2023-07-31T14:31:26;2.13;;;1.10;;
17345;SDS011;8790;53.590;10.002;2023-07-31T14:33:58;2.27;;;1.10;;
17345;SDS011;8790;53.590;10.002;2023-07-31T14:36:29;2.37;;;1.20;;
17345;SDS011;8790;53.590;10.002;2023-07-31T14:39:02;4.33;;;1.93;;
17345;SDS011;8790;53.590;10.002;2023-07-31T14:41:33;2.77;;;1.60;;
17345;SDS011;8790;53.590;10.002;2023-07-31T14:44:05;2.07;;;1.40;;
17345;SDS011;8790;53.590;10.002;2023-07-31T14:46:36;2.83;;;1.30;;
17345;SDS011;8790;53.590;10.002;2023-07-31T14:49:07;2.87;;;1.53;;
17345;SDS011;8790;53.590;10.002;2023-07-31T14:51:39;2.93;;;1.20;;
17345;SDS011;8790;53.590;10.002;2023-07-31T14:54:12;4.17;;;1.67;;
17345;SDS011;8790;53.590;10.002;2023-07-31T14:56:43;2.33;;;1.50;;
17345;SDS011;8790;53.590;10.002;2023-07-31T14:59:14;3.93;;;1.77;;
17345;SDS011;8790;53.590;10.002;2023-07-31T15:01:46;2.77;;;1.90;;
17345;SDS011;8790;53.590;10.002;2023-07-31T15:04:17;3.10;;;2.00;;
17345;SDS011;8790;53.590;10.002;2023-07-31T15:06:49;2.80;;;1.70;;
17345;SDS011;8790;53.590;10.002;2023-07-31T15:09:22;4.50;;;1.87;;
17345;SDS011;8790;53.590;10.002;2023-07-31T15:11:53;1.40;;;0.80;;
17345;SDS011;8790;53.590;10.002;2023-07-31T15:14:25;3.27;;;1.00;;
17345;SDS011;8790;53.590;10.002;2023-07-31T15:16:58;1.53;;;0.80;;
17345;SDS011;8790;53.590;10.002;2023-07-31T15:19:29;2.27;;;1.10;;
17345;SDS011;8790;53.590;10.002;2023-07-31T15:22:04;1.53;;;1.00;;